Time;durP1;ratioP1;P1;durP2;ratioP2;P2;SDS_P1;SDS_P2;PMS_P1;PMS_P2;Temp;Humidity;BMP_temperature;BMP_pressure;BME280_temperature;BME280_humidity;BME280_pressure;Samples;Min_cycle;Max_cycle;Signal;HPM_P1;HPM_P2
2022/07/13 00:00:16;;;;;;;3.63;3.08;;;14.50;99.90;;;;;;5249830;28;20117;-80
2022/07/13 00:02:47;;;;;;;4.03;3.60;;;14.50;99.90;;;;;;5255259;28;20035;-82
2022/07/13 00:05:18;;;;;;;4.22;3.30;;;14.50;99.90;;;;;;5247047;28;20103;-75
2022/07/13 00:07:49;;;;;;;4.28;3.67;;;14.50;99.90;;;;;;5251171;28;20023;-75
2022/07/13 00:10:19;;;;;;;5.35;3.58;;;14.30;99.90;;;;;;5248275;28;20107;-82
2022/07/13 00:12:50;;;;;;;5.25;3.40;;;14.10;99.90;;;;;;5256876;28;20093;-83
2022/07/13 00:15:21;;;;;;;5.18;3.33;;;14.20;99.90;;;;;;5259870;28;20029;-74
2022/07/13 00:17:52;;;;;;;3.92;3.47;;;14.20;99.90;;;;;;5260683;28;20047;-74
2022/07/13 00:20:23;;;;;;;7.32;3.78;;;14.00;99.90;;;;;;5260331;28;20032;-73
2022/07/13 00:22:54;;;;;;;6.40;4.22;;;14.10;99.90;;;;;;5257082;28;20524;-72
2022/07/13 00:25:25;;;;;;;6.00;3.67;;;13.80;99.90;;;;;;5253806;28;20098;-73
2022/07/13 00:27:56;;;;;;;3.30;3.08;;;14.30;99.90;;;;;;5255187;28;20016;-77
2022/07/13 00:30:27;;;;;;;4.28;3.00;;;14.20;99.90;;;;;;5257041;28;20119;-74
2022/07/13 00:32:58;;;;;;;4.95;3.22;;;14.30;99.90;;;;;;5262906;28;20031;-78
2022/07/13 00:35:29;;;;;;;5.30;3.05;;;14.50;99.90;;;;;;5263877;28;20039;-76
2022/07/13 00:38:00;;;;;;;7.03;4.40;;;14.40;99.90;;;;;;5257449;28;20450;-74
2022/07/13 00:40:31;;;;;;;7.13;4.30;;;13.80;99.90;;;;;;5256898;28;20016;-73
2022/07/13 00:43:02;;;;;;;4.38;3.60;;;13.40;99.90;;;;;;5253756;28;20035;-74
2022/07/13 00:45:33;;;;;;;6.18;4.30;;;13.40;99.90;;;;;;5260289;28;20020;-73
2022/07/13 00:48:05;;;;;;;5.20;3.42;;;13.70;99.90;;;;;;5257055;28;20028;-74
2022/07/13 00:50:37;;;;;;;5.07;3.70;;;14.00;99.90;;;;;;5257215;28;20029;-74
2022/07/13 00:53:09;;;;;;;4.78;4.10;;;14.20;99.90;;;;;;5257022;28;20051;-73
2022/07/13 00:55:40;;;;;;;5.60;3.47;;;14.00;99.90;;;;;;5258961;28;20028;-74
2022/07/13 00:58:11;;;;;;;5.03;4.15;;;14.00;99.90;;;;;;5256075;28;20438;-76
2022/07/13 01:00:42;;;;;;;4.45;3.90;;;13.60;99.90;;;;;;5250927;28;20040;-73
2022/07/13 01:03:12;;;;;;;6.55;3.70;;;13.60;99.90;;;;;;5252388;28;20025;-73
2022/07/13 01:05:44;;;;;;;8.18;4.43;;;14.20;99.90;;;;;;5258368;28;20016;-83
2022/07/13 01:08:15;;;;;;;;;;;13.30;99.90;;;;;;5256145;28;20027;-77
2022/07/13 01:10:47;;;;;;;;;;;13.40;99.90;;;;;;5256306;28;20051;-75
2022/07/13 01:13:18;;;;;;;3.55;3.03;;;13.70;99.90;;;;;;5259704;28;20244;-72
2022/07/13 01:15:49;;;;;;;5.65;3.30;;;14.10;99.90;;;;;;5256301;28;20440;-72
2022/07/13 01:18:21;;;;;;;6.00;3.00;;;14.20;99.90;;;;;;5259674;28;20032;-74
2022/07/13 01:20:52;;;;;;;6.28;3.30;;;14.00;99.90;;;;;;5260086;28;20025;-73
2022/07/13 01:23:23;;;;;;;4.63;3.50;;;13.90;99.90;;;;;;5255806;28;20611;-73
2022/07/13 01:25:56;;;;;;;3.97;3.53;;;13.90;99.90;;;;;;5253179;28;20032;-72
2022/07/13 01:28:26;;;;;;;8.07;3.47;;;13.70;99.90;;;;;;5249631;28;20100;-74
2022/07/13 01:30:57;;;;;;;7.90;3.85;;;13.40;99.90;;;;;;5252160;28;20096;-74
2022/07/13 01:33:28;;;;;;;4.70;4.15;;;13.30;99.90;;;;;;5256497;28;20421;-74
2022/07/13 01:35:59;;;;;;;3.90;3.58;;;13.50;99.90;;;;;;5256831;28;20376;-79
2022/07/13 01:38:30;;;;;;;7.47;3.70;;;13.90;99.90;;;;;;5255074;28;20160;-77
2022/07/13 01:41:02;;;;;;;4.75;3.65;;;13.90;99.90;;;;;;5258094;28;20038;-72
2022/07/13 01:43:33;;;;;;;4.55;3.80;;;13.90;99.90;;;;;;5262757;28;20765;-74
2022/07/13 01:46:04;;;;;;;6.45;3.25;;;13.90;99.90;;;;;;5259978;28;20031;-74
2022/07/13 01:48:35;;;;;;;4.78;3.90;;;13.90;99.90;;;;;;5259712;28;20101;-72
2022/07/13 01:51:06;;;;;;;4.85;4.35;;;13.20;99.90;;;;;;5258481;28;20036;-77
2022/07/13 01:53:37;;;;;;;4.20;3.80;;;13.00;99.90;;;;;;5261256;28;20054;-73
2022/07/13 01:56:08;;;;;;;8.23;5.20;;;13.60;99.90;;;;;;5256609;28;20025;-73
2022/07/13 01:58:39;;;;;;;7.68;5.10;;;13.30;99.90;;;;;;5259204;28;20021;-81
2022/07/13 02:01:10;;;;;;;4.85;4.07;;;13.40;99.90;;;;;;5258933;28;20060;-73
2022/07/13 02:03:41;;;;;;;4.47;3.67;;;13.80;99.90;;;;;;5251548;28;20414;-73
2022/07/13 02:06:12;;;;;;;7.72;3.40;;;13.80;99.90;;;;;;5249461;28;20024;-83
2022/07/13 02:08:43;;;;;;;4.75;3.30;;;13.90;99.90;;;;;;5253707;28;20036;-73
2022/07/13 02:11:20;;;;;;;3.65;3.20;;;13.80;99.90;;;;;;5252289;28;20028;-83
2022/07/13 02:13:50;;;;;;;4.68;3.33;;;13.50;99.90;;;;;;5262403;28;20032;-77
2022/07/13 02:16:22;;;;;;;7.05;3.80;;;13.70;99.90;;;;;;5261149;28;20361;-78
2022/07/13 02:18:52;;;;;;;5.82;3.70;;;13.30;99.90;;;;;;5254350;28;20032;-72
2022/07/13 02:21:23;;;;;;;5.55;4.25;;;13.30;99.90;;;;;;5264552;28;20085;-72
2022/07/13 02:23:54;;;;;;;7.10;4.07;;;12.90;99.90;;;;;;5258761;28;20020;-73
2022/07/13 02:26:25;;;;;;;5.18;3.78;;;13.40;99.90;;;;;;5252006;28;20039;-74
2022/07/13 02:28:56;;;;;;;4.30;3.47;;;13.50;99.90;;;;;;5261818;28;20360;-72
2022/07/13 02:31:26;;;;;;;6.80;3.70;;;13.20;99.90;;;;;;5258456;28;20044;-72
2022/07/13 02:33:58;;;;;;;6.18;3.50;;;13.30;99.90;;;;;;5262213;28;20028;-72
2022/07/13 02:36:28;;;;;;;5.57;3.35;;;13.40;99.90;;;;;;5251304;28;20024;-73
2022/07/13 02:38:59;;;;;;;4.13;3.22;;;13.70;99.90;;;;;;5250619;28;20039;-74
2022/07/13 02:41:30;;;;;;;4.05;3.30;;;13.40;99.90;;;;;;5254236;28;20076;-73
2022/07/13 02:44:01;;;;;;;3.35;3.00;;;13.20;99.90;;;;;;5251558;28;20020;-72
2022/07/13 02:46:32;;;;;;;4.82;3.83;;;13.10;99.90;;;;;;5254948;28;20033;-76
2022/07/13 02:49:03;;;;;;;4.80;3.65;;;13.20;99.90;;;;;;5258659;28;20510;-73
2022/07/13 02:51:34;;;;;;;5.57;3.80;;;13.20;99.90;;;;;;5255553;28;20028;-75
2022/07/13 02:54:05;;;;;;;5.72;3.50;;;13.40;99.90;;;;;;5261717;28;20020;-73
2022/07/13 02:56:36;;;;;;;4.57;3.45;;;13.40;99.90;;;;;;5254610;28;20072;-72
2022/07/13 02:59:07;;;;;;;4.32;3.92;;;13.20;99.90;;;;;;5249799;28;20040;-73
2022/07/13 03:01:38;;;;;;;7.68;3.58;;;13.00;99.90;;;;;;5250750;28;20048;-73
2022/07/13 03:04:09;;;;;;;4.55;3.50;;;13.10;99.90;;;;;;5247750;28;20035;-72
2022/07/13 03:06:40;;;;;;;6.00;3.63;;;13.20;99.90;;;;;;5254457;28;20024;-80
2022/07/13 03:09:10;;;;;;;4.60;4.05;;;13.50;99.90;;;;;;5250796;28;20464;-80
2022/07/13 03:11:41;;;;;;;8.98;4.50;;;13.40;99.90;;;;;;5264377;28;20032;-73
2022/07/13 03:14:12;;;;;;;5.53;4.60;;;13.10;99.90;;;;;;5257390;28;20496;-74
2022/07/13 03:16:43;;;;;;;8.48;4.88;;;13.20;99.90;;;;;;5252097;28;20081;-74
2022/07/13 03:19:14;;;;;;;9.50;4.63;;;13.10;99.90;;;;;;5255168;28;20367;-72
2022/07/13 03:21:45;;;;;;;6.10;4.25;;;13.30;99.90;;;;;;5261282;28;20032;-74
2022/07/13 03:24:16;;;;;;;6.32;4.28;;;13.40;99.90;;;;;;5249090;28;20016;-73
2022/07/13 03:26:47;;;;;;;4.75;4.30;;;13.40;99.90;;;;;;5254408;28;20090;-82
2022/07/13 03:29:17;;;;;;;5.45;4.30;;;13.60;99.90;;;;;;5255779;28;20024;-72
2022/07/13 03:31:48;;;;;;;4.93;4.28;;;13.60;99.90;;;;;;5253833;28;20040;-72
2022/07/13 03:34:19;;;;;;;7.10;4.38;;;13.50;99.90;;;;;;5252667;28;20043;-72
2022/07/13 03:36:50;;;;;;;6.43;4.47;;;13.70;99.90;;;;;;5257831;28;20036;-73
2022/07/13 03:39:21;;;;;;;4.40;3.90;;;13.70;99.90;;;;;;5257295;28;20530;-72
2022/07/13 03:41:52;;;;;;;5.97;4.50;;;13.80;99.90;;;;;;5258388;28;20029;-73
2022/07/13 03:44:23;;;;;;;6.65;5.05;;;13.90;99.90;;;;;;5246955;28;20686;-72
2022/07/13 03:46:53;;;;;;;8.20;5.40;;;14.00;99.90;;;;;;5249832;28;20085;-72
2022/07/13 03:49:25;;;;;;;7.75;4.93;;;14.10;99.90;;;;;;5250704;28;20485;-73
2022/07/13 03:51:55;;;;;;;5.88;5.18;;;14.10;99.90;;;;;;5252873;28;20032;-72
2022/07/13 03:54:26;;;;;;;6.63;4.85;;;13.90;99.90;;;;;;5249743;28;20384;-72
2022/07/13 03:56:57;;;;;;;5.82;4.72;;;13.90;99.90;;;;;;5260918;28;20023;-73
2022/07/13 03:59:28;;;;;;;5.18;4.38;;;14.10;99.90;;;;;;5260494;28;20052;-81
2022/07/13 04:01:59;;;;;;;5.22;4.68;;;14.40;99.90;;;;;;5259381;28;20071;-83
2022/07/13 04:04:30;;;;;;;6.55;5.38;;;14.50;99.90;;;;;;5253524;28;20549;-75
2022/07/13 04:07:01;;;;;;;7.05;4.38;;;14.30;99.90;;;;;;5264365;28;20056;-74
2022/07/13 04:09:31;;;;;;;5.63;4.30;;;14.30;99.90;;;;;;5259574;28;20477;-82
2022/07/13 04:12:02;;;;;;;5.95;4.47;;;14.80;99.90;;;;;;5254688;28;20033;-80
2022/07/13 04:14:33;;;;;;;4.28;3.83;;;14.60;99.90;;;;;;5254417;28;20032;-75
2022/07/13 04:17:04;;;;;;;6.18;4.35;;;14.70;99.90;;;;;;5260177;28;20036;-76
2022/07/13 04:19:35;;;;;;;7.55;4.60;;;15.00;99.90;;;;;;5257581;28;20086;-73
2022/07/13 04:22:06;;;;;;;5.60;4.40;;;14.90;99.90;;;;;;5254626;28;20021;-81
2022/07/13 04:24:37;;;;;;;5.20;4.35;;;14.60;99.90;;;;;;5261644;28;20028;-85
2022/07/13 04:27:08;;;;;;;9.10;4.68;;;15.00;99.90;;;;;;5262068;28;20017;-84
2022/07/13 04:29:39;;;;;;;5.63;5.00;;;15.40;99.90;;;;;;5257757;28;20035;-79
2022/07/13 04:32:10;;;;;;;5.45;4.68;;;15.10;99.90;;;;;;5267500;28;20101;-85
2022/07/13 04:34:41;;;;;;;4.35;3.83;;;15.40;99.90;;;;;;5262152;28;20032;-82
2022/07/13 04:37:12;;;;;;;6.82;4.30;;;15.60;99.90;;;;;;5253641;28;20024;-84
2022/07/13 04:39:46;;;;;;;3.92;3.45;;;15.30;99.90;;;;;;5259460;28;20478;-87
2022/07/13 04:42:19;;;;;;;4.30;3.50;;;15.20;99.90;;;;;;5261160;28;20103;-86
2022/07/13 04:44:51;;;;;;;5.05;3.70;;;15.40;99.90;;;;;;5254425;28;20036;-83
2022/07/13 04:47:22;;;;;;;5.95;3.78;;;15.80;99.90;;;;;;5264374;28;20031;-83
2022/07/13 04:49:53;;;;;;;4.38;3.33;;;16.00;99.90;;;;;;5264319;28;20441;-75
2022/07/13 04:52:24;;;;;;;3.65;3.25;;;16.30;99.90;;;;;;5253473;28;20365;-75
2022/07/13 04:54:55;;;;;;;6.20;3.40;;;16.30;99.90;;;;;;5259070;28;20521;-81
2022/07/13 04:57:26;;;;;;;5.90;3.47;;;16.70;99.90;;;;;;5260569;28;20089;-81
2022/07/13 04:59:57;;;;;;;5.45;3.80;;;16.70;99.90;;;;;;5261325;28;20051;-82
2022/07/13 05:02:28;;;;;;;4.65;3.10;;;16.70;99.90;;;;;;5248925;28;20079;-73
2022/07/13 05:04:58;;;;;;;4.82;3.25;;;16.80;99.90;;;;;;5248555;28;20507;-73
2022/07/13 05:07:29;;;;;;;6.47;2.65;;;17.00;99.90;;;;;;5250037;28;20020;-73
2022/07/13 05:10:00;;;;;;;7.28;3.22;;;17.50;99.90;;;;;;5250066;28;20025;-73
2022/07/13 05:12:32;;;;;;;4.65;3.35;;;17.80;99.90;;;;;;5249870;28;20035;-73
2022/07/13 05:15:04;;;;;;;5.00;2.88;;;17.50;99.90;;;;;;5248942;28;20090;-74
2022/07/13 05:17:35;;;;;;;14.48;3.13;;;17.50;99.90;;;;;;5262242;28;20020;-73
2022/07/13 05:20:06;;;;;;;7.00;3.03;;;17.80;99.90;;;;;;5248971;28;20023;-73
2022/07/13 05:22:37;;;;;;;6.05;2.17;;;18.00;99.90;;;;;;5248419;28;20107;-73
2022/07/13 05:25:09;;;;;;;4.20;1.85;;;18.20;99.90;;;;;;5248945;28;20426;-73
2022/07/13 05:27:40;;;;;;;7.43;2.28;;;18.40;99.90;;;;;;5249525;28;20464;-73
2022/07/13 05:30:11;;;;;;;5.53;1.98;;;18.70;99.90;;;;;;5247961;28;20035;-73
2022/07/13 05:32:42;;;;;;;6.15;1.90;;;18.70;99.90;;;;;;5249060;28;20040;-73
2022/07/13 05:35:13;;;;;;;4.43;2.08;;;19.00;99.90;;;;;;5247798;28;20158;-73
2022/07/13 05:37:43;;;;;;;3.80;1.67;;;19.30;99.90;;;;;;5249619;28;20040;-75
2022/07/13 05:40:14;;;;;;;5.80;1.55;;;19.40;99.90;;;;;;5249430;28;20048;-73
2022/07/13 05:42:45;;;;;;;3.17;1.63;;;19.30;99.90;;;;;;5249478;28;20029;-73
2022/07/13 05:45:16;;;;;;;2.75;1.63;;;19.80;99.90;;;;;;5249172;28;20059;-74
2022/07/13 05:47:47;;;;;;;3.88;1.60;;;19.70;99.90;;;;;;5248050;28;20036;-73
2022/07/13 05:50:17;;;;;;;3.85;1.50;;;20.00;99.90;;;;;;5249116;28;20046;-73
2022/07/13 05:52:48;;;;;;;2.55;1.23;;;20.40;99.90;;;;;;5248967;28;20082;-73
2022/07/13 05:55:19;;;;;;;5.45;1.83;;;20.50;99.90;;;;;;5249097;28;20056;-73
2022/07/13 05:57:50;;;;;;;3.97;1.38;;;20.60;99.90;;;;;;5249093;28;20074;-73
2022/07/13 06:00:21;;;;;;;5.50;1.70;;;20.80;99.90;;;;;;5248574;28;20052;-75
2022/07/13 06:02:53;;;;;;;6.20;1.83;;;20.80;99.90;;;;;;5249095;28;20029;-74
2022/07/13 06:05:24;;;;;;;4.97;1.60;;;20.70;99.90;;;;;;5248917;28;20020;-74
2022/07/13 06:07:55;;;;;;;8.77;1.65;;;20.90;99.90;;;;;;5248821;28;20111;-77
2022/07/13 06:10:27;;;;;;;3.65;1.40;;;21.20;99.90;;;;;;5248783;28;20031;-74
2022/07/13 06:12:57;;;;;;;4.38;1.70;;;21.30;99.90;;;;;;5248559;28;20029;-74
2022/07/13 06:15:28;;;;;;;4.30;1.85;;;21.20;99.90;;;;;;5247489;28;20031;-74
2022/07/13 06:17:59;;;;;;;3.60;1.85;;;21.20;99.90;;;;;;5248709;28;20028;-74
2022/07/13 06:20:30;;;;;;;5.03;1.50;;;20.90;99.90;;;;;;5248508;28;20127;-74
2022/07/13 06:23:09;;;;;;;5.78;2.00;;;21.30;99.90;;;;;;5248387;28;20474;-74
2022/07/13 06:25:41;;;;;;;9.80;1.55;;;21.40;99.90;;;;;;5248426;28;20089;-74
2022/07/13 06:28:13;;;;;;;5.10;1.20;;;21.50;99.90;;;;;;5248416;28;20781;-74
2022/07/13 06:30:43;;;;;;;3.35;1.10;;;21.70;99.90;;;;;;5246882;28;20090;-75
2022/07/13 06:33:14;;;;;;;5.97;1.27;;;21.90;99.90;;;;;;5248016;28;20479;-78
2022/07/13 06:35:45;;;;;;;9.68;1.48;;;21.80;99.90;;;;;;5248467;28;20020;-74
2022/07/13 06:38:16;;;;;;;5.20;1.23;;;22.20;99.90;;;;;;5248173;28;20035;-74
2022/07/13 06:40:47;;;;;;;4.10;1.65;;;22.30;99.90;;;;;;5248282;28;20107;-75
2022/07/13 06:43:18;;;;;;;5.55;1.40;;;22.40;99.90;;;;;;5263773;28;20043;-75
2022/07/13 06:45:49;;;;;;;6.30;1.67;;;22.40;99.90;;;;;;5248152;28;20031;-74
2022/07/13 06:48:20;;;;;;;6.43;1.40;;;22.40;99.90;;;;;;5248013;28;20476;-74
2022/07/13 06:50:51;;;;;;;6.53;1.38;;;22.70;99.90;;;;;;5248110;28;20044;-74
2022/07/13 06:53:22;;;;;;;3.22;1.10;;;22.90;99.90;;;;;;5247958;28;20030;-74
2022/07/13 06:55:54;;;;;;;4.22;1.25;;;22.70;99.90;;;;;;5247941;28;20032;-75
2022/07/13 06:58:24;;;;;;;3.00;1.25;;;22.70;99.90;;;;;;5246511;28;20098;-77
2022/07/13 07:00:55;;;;;;;6.07;1.20;;;22.80;99.90;;;;;;5247493;28;20048;-77
2022/07/13 07:03:26;;;;;;;4.78;1.42;;;23.00;99.90;;;;;;5247607;28;20040;-74
2022/07/13 07:05:58;;;;;;;6.13;1.50;;;22.90;99.90;;;;;;5246593;28;20082;-74
2022/07/13 07:08:29;;;;;;;3.55;1.10;;;23.00;99.90;;;;;;5246450;28;20029;-74
2022/07/13 07:10:59;;;;;;;5.25;1.23;;;23.30;99.90;;;;;;5247561;28;20526;-83
2022/07/13 07:13:30;;;;;;;8.93;1.40;;;23.40;99.90;;;;;;5247364;28;20438;-74
2022/07/13 07:16:01;;;;;;;4.13;1.33;;;23.30;99.90;;;;;;5247589;28;20029;-74
2022/07/13 07:18:32;;;;;;;7.88;2.08;;;23.50;99.90;;;;;;5263198;28;20111;-74
2022/07/13 07:21:03;;;;;;;3.97;1.50;;;23.60;99.90;;;;;;5247181;28;20556;-75
2022/07/13 07:23:33;;;;;;;3.58;1.00;;;23.70;99.90;;;;;;5247750;28;20376;-73
2022/07/13 07:26:04;;;;;;;8.02;1.27;;;23.70;99.90;;;;;;5247136;28;20036;-74
2022/07/13 07:28:35;;;;;;;5.07;1.67;;;23.90;99.90;;;;;;5247394;28;20429;-74
2022/07/13 07:31:06;;;;;;;6.30;1.60;;;24.00;99.90;;;;;;5247227;28;20875;-73
2022/07/13 07:33:37;;;;;;;8.65;1.70;;;23.90;99.90;;;;;;5247492;28;20025;-73
2022/07/13 07:36:08;;;;;;;2.72;0.98;;;24.10;99.90;;;;;;5247361;28;20115;-73
2022/07/13 07:38:39;;;;;;;3.80;1.27;;;23.90;99.90;;;;;;5246880;28;20103;-73
2022/07/13 07:41:10;;;;;;;4.25;1.70;;;23.60;99.90;;;;;;5247364;28;20032;-74
2022/07/13 07:43:41;;;;;;;4.13;1.20;;;24.30;99.90;;;;;;5247460;28;20089;-74
2022/07/13 07:46:11;;;;;;;3.35;1.13;;;24.20;99.90;;;;;;5247240;28;20020;-73
2022/07/13 07:48:42;;;;;;;3.50;1.10;;;24.40;99.90;;;;;;5246981;28;20036;-74
2022/07/13 07:51:13;;;;;;;3.65;1.20;;;24.70;99.90;;;;;;5245707;28;20089;-73
2022/07/13 07:53:44;;;;;;;3.67;0.90;;;24.70;99.90;;;;;;5247239;28;20037;-75
2022/07/13 07:56:15;;;;;;;5.78;1.13;;;24.80;99.90;;;;;;5247103;28;20020;-82
2022/07/13 07:58:45;;;;;;;5.40;1.15;;;24.80;99.90;;;;;;5246847;28;20036;-73
2022/07/13 08:01:16;;;;;;;5.97;0.90;;;24.90;99.90;;;;;;5246746;28;20491;-73
2022/07/13 08:03:47;;;;;;;2.25;1.10;;;25.00;99.90;;;;;;5245780;28;20369;-74
2022/07/13 08:06:18;;;;;;;2.78;0.90;;;25.10;99.90;;;;;;5246083;28;20036;-75
2022/07/13 08:08:48;;;;;;;3.65;1.17;;;25.40;99.90;;;;;;5247123;28;20789;-74
2022/07/13 08:11:20;;;;;;;5.78;1.17;;;25.60;99.90;;;;;;5246859;28;20040;-77
2022/07/13 08:13:51;;;;;;;4.10;1.30;;;25.50;99.90;;;;;;5245608;28;20086;-73
2022/07/13 08:16:22;;;;;;;3.70;1.13;;;25.50;99.90;;;;;;5247065;28;20448;-74
2022/07/13 08:18:53;;;;;;;4.05;0.90;;;25.70;99.90;;;;;;5245689;28;20533;-74
2022/07/13 08:21:26;;;;;;;4.32;1.38;;;25.20;99.90;;;;;;5246898;28;20033;-73
2022/07/13 08:23:56;;;;;;;3.70;1.02;;;25.40;99.90;;;;;;5245576;28;20025;-73
2022/07/13 08:26:29;;;;;;;6.85;1.20;;;25.40;99.90;;;;;;5246943;28;20033;-73
2022/07/13 08:29:00;;;;;;;4.90;1.17;;;25.60;99.90;;;;;;5245443;28;20078;-73
2022/07/13 08:31:31;;;;;;;2.92;1.10;;;25.80;99.90;;;;;;5246595;28;20040;-74
2022/07/13 08:39:40;;;;;;;6.60;2.28;;;25.80;99.90;;;;;;5246858;28;20029;-81
2022/07/13 08:42:13;;;;;;;9.60;1.60;;;26.40;99.90;;;;;;5246788;28;20016;-74
2022/07/13 08:44:44;;;;;;;9.57;1.60;;;26.20;99.90;;;;;;5262430;28;20028;-75
2022/07/13 08:47:16;;;;;;;1.65;0.85;;;26.40;99.90;;;;;;5246583;28;20039;-74
2022/07/13 08:49:50;;;;;;;5.90;1.40;;;26.20;99.90;;;;;;5247331;28;20048;-74
2022/07/13 08:52:21;;;;;;;3.08;1.10;;;26.30;99.90;;;;;;5250273;28;20039;-74
2022/07/13 08:54:52;;;;;;;3.35;1.20;;;25.50;99.90;;;;;;5250309;28;20379;-73
2022/07/13 08:57:24;;;;;;;3.30;1.13;;;26.00;99.90;;;;;;5250270;28;20082;-74
2022/07/13 08:59:54;;;;;;;2.42;1.10;;;25.90;99.90;;;;;;5249870;28;20060;-81
2022/07/13 09:02:25;;;;;;;4.65;1.75;;;26.10;99.90;;;;;;5249024;28;20576;-73
2022/07/13 09:04:57;;;;;;;4.63;1.50;;;25.90;99.90;;;;;;5265835;28;20099;-74
2022/07/13 09:07:28;;;;;;;4.63;1.58;;;26.00;99.90;;;;;;5250132;28;20521;-73
2022/07/13 09:10:02;;;;;;;4.72;1.70;;;26.00;99.90;;;;;;5250169;28;20029;-73
2022/07/13 09:12:32;;;;;;;11.57;1.75;;;26.50;99.90;;;;;;5248600;28;20127;-73
2022/07/13 09:15:06;;;;;;;5.25;1.60;;;26.10;99.90;;;;;;5248683;28;20452;-73
2022/07/13 09:17:42;;;;;;;6.40;1.42;;;26.50;99.90;;;;;;5249882;28;20037;-74
2022/07/13 09:20:13;;;;;;;10.45;2.58;;;26.20;99.90;;;;;;5250075;28;20246;-73
2022/07/13 09:22:57;;;;;;;9.57;1.60;;;26.80;99.90;;;;;;5249965;28;20040;-74
2022/07/13 09:25:37;;;;;;;4.20;1.20;;;26.80;99.90;;;;;;5249814;28;20091;-74
2022/07/13 09:28:09;;;;;;;;;;;26.50;99.90;;;;;;5250316;28;20066;-74
2022/07/13 09:30:45;;;;;;;5.30;1.10;;;26.80;99.90;;;;;;5249492;28;19920;-73
2022/07/13 09:33:32;;;;;;;6.80;1.17;;;26.90;99.90;;;;;;5249681;28;20170;-74
2022/07/13 09:36:22;;;;;;;5.05;1.67;;;26.60;99.90;;;;;;5249652;28;20019;-73
2022/07/13 09:38:52;;;;;;;5.15;1.17;;;26.40;99.90;;;;;;5248401;28;20025;-73
2022/07/13 09:41:25;;;;;;;5.35;1.17;;;26.50;99.90;;;;;;5249500;28;20035;-73
2022/07/13 09:47:02;;;;;;;7.20;1.30;;;26.70;99.90;;;;;;5249654;28;20030;-74
2022/07/13 09:49:35;;;;;;;5.55;1.05;;;26.80;99.90;;;;;;5249395;28;20032;-73
2022/07/13 09:52:29;;;;;;;3.20;1.10;;;27.50;99.90;;;;;;5249282;28;20608;-73
2022/07/13 09:55:04;;;;;;;4.85;1.23;;;26.80;99.90;;;;;;5247177;28;20036;-73
2022/07/13 09:57:38;;;;;;;4.93;0.90;;;27.20;99.90;;;;;;5249177;28;20043;-73
2022/07/13 10:00:11;;;;;;;3.70;1.00;;;27.00;99.90;;;;;;5247372;28;20044;-77
2022/07/13 10:02:42;;;;;;;5.93;0.85;;;26.60;99.90;;;;;;5248986;28;20468;-74
2022/07/13 10:05:14;;;;;;;6.00;1.15;;;27.20;99.90;;;;;;5247647;28;20011;-73
2022/07/13 10:07:47;;;;;;;4.18;1.27;;;26.90;99.90;;;;;;5247620;28;20032;-72
2022/07/13 10:10:17;;;;;;;3.28;1.30;;;26.50;99.90;;;;;;5248951;28;20476;-83
2022/07/13 10:12:48;;;;;;;2.75;0.90;;;26.90;99.90;;;;;;5264475;28;20036;-73
2022/07/13 10:15:20;;;;;;;2.95;1.30;;;26.60;99.90;;;;;;5247494;28;20044;-73
2022/07/13 10:17:52;;;;;;;2.72;1.08;;;27.40;99.90;;;;;;5248756;28;20024;-74
2022/07/13 10:20:25;;;;;;;3.05;0.80;;;26.90;99.90;;;;;;5248695;28;20021;-83
2022/07/13 10:22:56;;;;;;;4.32;0.88;;;26.80;99.90;;;;;;5248814;28;20063;-73
2022/07/13 10:25:42;;;;;;;5.55;1.10;;;26.90;99.90;;;;;;5248534;28;20457;-73
2022/07/13 10:28:13;;;;;;;3.85;0.75;;;27.10;99.90;;;;;;5248527;28;20025;-72
2022/07/13 10:30:44;;;;;;;5.60;1.30;;;26.80;99.90;;;;;;5247977;28;20079;-73
2022/07/13 10:33:18;;;;;;;4.80;1.30;;;27.30;99.90;;;;;;5246995;28;20506;-84
2022/07/13 10:35:51;;;;;;;5.22;1.42;;;27.30;99.90;;;;;;5248339;28;20024;-75
2022/07/13 10:38:27;;;;;;;6.38;1.30;;;27.20;99.90;;;;;;5248317;28;20469;-73
2022/07/13 10:41:18;;;;;;;3.10;1.08;;;26.60;99.90;;;;;;5248394;28;20024;-84
2022/07/13 10:44:33;;;;;;;4.35;0.98;;;26.80;99.90;;;;;;5248237;28;20035;-73
2022/07/13 10:47:12;;;;;;;6.25;1.48;;;27.50;99.90;;;;;;5248250;28;20036;-73
2022/07/13 10:49:47;;;;;;;6.28;1.65;;;26.90;99.90;;;;;;5246893;28;20021;-76
2022/07/13 10:52:25;;;;;;;8.18;2.00;;;27.10;99.90;;;;;;5248009;28;20072;-73
2022/07/13 10:55:11;;;;;;;4.68;1.42;;;26.80;99.90;;;;;;5248152;28;20079;-73
2022/07/13 10:57:42;;;;;;;3.05;1.08;;;26.80;99.90;;;;;;5246716;28;20107;-73
2022/07/13 11:02:55;;;;;;;3.58;1.02;;;27.10;99.90;;;;;;5247877;28;20491;-78
2022/07/13 11:05:29;;;;;;;2.88;0.93;;;27.20;99.90;;;;;;5247780;28;20039;-73
2022/07/13 11:08:12;;;;;;;3.80;0.90;;;27.00;99.90;;;;;;5263530;28;20115;-73
2022/07/13 11:10:43;;;;;;;3.80;1.10;;;26.90;99.90;;;;;;5247668;28;20070;-73
2022/07/13 11:13:23;;;;;;;4.35;1.00;;;27.10;99.90;;;;;;5247083;28;20369;-79
2022/07/13 11:15:55;;;;;;;6.93;1.30;;;27.40;99.90;;;;;;5247770;28;20021;-85
2022/07/13 11:18:31;;;;;;;7.32;1.27;;;27.30;99.90;;;;;;5247760;28;20025;-73
2022/07/13 11:21:09;;;;;;;3.28;1.17;;;26.80;99.90;;;;;;5247578;28;20024;-77
2022/07/13 11:26:44;;;;;;;4.97;1.02;;;27.10;99.90;;;;;;5247706;28;20166;-74
2022/07/13 11:29:17;;;;;;;3.58;1.00;;;27.10;99.90;;;;;;5247382;28;20029;-84
2022/07/13 11:32:00;;;;;;;3.67;1.20;;;27.20;99.90;;;;;;5247704;28;20045;-73
2022/07/13 11:34:31;;;;;;;3.67;1.30;;;27.30;99.90;;;;;;5247429;28;20078;-73
2022/07/13 11:37:02;;;;;;;5.10;1.17;;;27.50;99.90;;;;;;5245778;28;20021;-73
2022/07/13 11:39:34;;;;;;;4.18;1.35;;;27.30;99.90;;;;;;5247408;28;20024;-77
2022/07/13 11:42:07;;;;;;;7.85;1.40;;;27.20;99.90;;;;;;5247136;28;20078;-81
2022/07/13 11:44:38;;;;;;;3.95;1.20;;;27.70;99.90;;;;;;5247341;28;20027;-73
2022/07/13 11:47:09;;;;;;;4.50;1.77;;;27.40;99.90;;;;;;5246883;28;20037;-73
2022/07/13 11:49:47;;;;;;;8.65;1.38;;;27.00;99.90;;;;;;5247267;28;20099;-73
2022/07/13 11:52:29;;;;;;;4.30;1.25;;;27.40;99.90;;;;;;5246988;28;20711;-74
2022/07/13 11:55:02;;;;;;;7.15;1.50;;;27.70;99.90;;;;;;5247139;28;20389;-73
2022/07/13 11:57:33;;;;;;;3.30;1.15;;;27.70;99.90;;;;;;5247278;28;20086;-73
2022/07/13 12:00:06;;;;;;;3.97;1.38;;;27.50;99.90;;;;;;5246860;28;20040;-75
2022/07/13 12:02:37;;;;;;;5.32;1.33;;;27.60;99.90;;;;;;5247262;28;20037;-73
2022/07/13 12:05:08;;;;;;;4.15;1.08;;;27.70;99.90;;;;;;5245802;28;20029;-72
2022/07/13 12:07:39;;;;;;;3.28;1.20;;;27.70;99.90;;;;;;5247050;28;20025;-73
2022/07/13 12:10:10;;;;;;;3.58;1.40;;;27.70;99.90;;;;;;5246996;28;20070;-73
2022/07/13 12:12:41;;;;;;;5.15;1.25;;;28.10;99.90;;;;;;5246946;28;20024;-73
2022/07/13 12:15:12;;;;;;;5.68;0.95;;;27.70;99.90;;;;;;5246970;28;20035;-73
2022/07/13 12:17:52;;;;;;;5.07;1.30;;;27.20;99.90;;;;;;5246912;28;20103;-73
2022/07/13 12:20:23;;;;;;;;;;;27.40;99.90;;;;;;5247475;28;20028;-73
2022/07/13 12:22:56;;;;;;;8.55;1.10;;;27.50;99.90;;;;;;5262535;28;19999;-74
2022/07/13 12:25:32;;;;;;;4.85;1.27;;;27.90;99.90;;;;;;5250311;28;20375;-73
2022/07/13 12:28:05;;;;;;;2.60;1.10;;;27.70;99.90;;;;;;5251012;28;20357;-72
2022/07/13 12:30:54;;;;;;;7.35;1.30;;;27.40;99.90;;;;;;5250626;28;20029;-73
2022/07/13 12:33:25;;;;;;;3.58;1.10;;;27.80;99.90;;;;;;5250972;28;20037;-73
2022/07/13 12:36:04;;;;;;;5.95;1.35;;;27.50;99.90;;;;;;5250817;28;20074;-73
2022/07/13 12:38:35;;;;;;;7.15;1.08;;;28.00;99.90;;;;;;5250674;28;20549;-73
2022/07/13 12:41:06;;;;;;;4.00;1.30;;;27.40;99.90;;;;;;5250605;28;20029;-73
2022/07/13 12:43:36;;;;;;;8.65;1.25;;;27.50;99.90;;;;;;5250563;28;20035;-73
2022/07/13 12:46:07;;;;;;;4.03;0.80;;;27.90;99.90;;;;;;5250517;28;20029;-74
2022/07/13 12:48:38;;;;;;;9.15;1.30;;;27.30;99.90;;;;;;5250387;28;20036;-80
2022/07/13 12:51:13;;;;;;;6.50;1.20;;;27.90;99.90;;;;;;5250197;28;20035;-73
2022/07/13 12:53:51;;;;;;;2.58;1.20;;;27.60;99.90;;;;;;5250555;28;20448;-74
2022/07/13 12:56:24;;;;;;;5.65;0.88;;;27.60;99.90;;;;;;5250331;28;20049;-73
2022/07/13 12:58:57;;;;;;;4.32;1.00;;;27.30;99.90;;;;;;5250293;28;20032;-73
2022/07/13 13:01:32;;;;;;;3.17;0.85;;;27.30;99.90;;;;;;5250003;28;20046;-73
2022/07/13 13:04:11;;;;;;;6.15;1.10;;;27.30;99.90;;;;;;5250167;28;20047;-73
2022/07/13 13:06:43;;;;;;;2.50;1.00;;;27.40;99.90;;;;;;5250221;28;20028;-73
2022/07/13 13:09:16;;;;;;;3.63;0.75;;;27.70;99.90;;;;;;5250183;28;20032;-73
2022/07/13 13:11:47;;;;;;;4.90;0.95;;;27.40;99.90;;;;;;5250114;28;20487;-73
2022/07/13 13:14:18;;;;;;;3.65;1.33;;;27.80;99.90;;;;;;5250000;28;20024;-73
2022/07/13 13:16:49;;;;;;;6.88;1.35;;;28.00;99.90;;;;;;5249982;28;20086;-73
2022/07/13 13:19:20;;;;;;;6.78;1.33;;;27.90;99.90;;;;;;5249900;28;20063;-74
2022/07/13 13:21:51;;;;;;;6.50;1.52;;;27.40;99.90;;;;;;5249800;28;20090;-74
2022/07/13 13:24:22;;;;;;;3.38;1.20;;;27.60;99.90;;;;;;5249721;28;20016;-73
2022/07/13 13:26:52;;;;;;;6.05;1.10;;;27.80;99.90;;;;;;5249714;28;20376;-74